Terminal Aerodrome Forecast
Issued by NWS

Home | Current Version | Previous Version | Text Only | Print | Product List | Glossary On
Versions: 1 2 3 4 5 6 7 8 9 10 11 12 13 14 15 16 17 18 19 20 21 22 23 24
000
FTUS43 KLSX 222300
TAFSUS
TAF
KSUS 222333Z 2300/2324 12005KT 4SM -RA BR BKN008 OVC012
     FM230300 17006KT 5SM BR OVC012
     FM230600 23008KT P6SM BKN015
     FM230900 23006KT P6SM SCT020
     FM231500 24006KT P6SM BKN100=

USA.gov is the U.S. government's official web portal to all federal, state and local government web resources and services.